Time;durP1;ratioP1;P1;durP2;ratioP2;P2;SDS_P1;SDS_P2;PMS_P1;PMS_P2;Temp;Humidity;BMP_temperature;BMP_pressure;BME280_temperature;BME280_humidity;BME280_pressure;Samples;Min_cycle;Max_cycle;Signal;HPM_P1;HPM_P2
2021/01/01 00:01:58;;;;;;;1783.53;761.28;;;-1.00;99.90;;;;;;4180896;28;20056;-73
2021/01/01 00:03:59;;;;;;;1654.32;733.67;;;-1.10;99.90;;;;;;4180980;28;20025;-73
2021/01/01 00:06:00;;;;;;;1999.90;755.67;;;-1.10;99.90;;;;;;4180678;28;20029;-74
2021/01/01 00:08:00;;;;;;;1696.05;716.05;;;-1.00;99.90;;;;;;4180791;28;20395;-73
2021/01/01 00:10:02;;;;;;;1821.25;745.65;;;-1.00;99.90;;;;;;4163668;28;20026;-74
2021/01/01 00:12:03;;;;;;;1458.60;614.17;;;-1.00;99.90;;;;;;4164142;28;20025;-74
2021/01/01 00:14:04;;;;;;;1420.03;609.08;;;-1.00;99.90;;;;;;4164073;28;20032;-74
2021/01/01 00:16:04;;;;;;;1350.28;584.67;;;-1.00;99.90;;;;;;4163946;28;20029;-73
2021/01/01 00:18:05;;;;;;;1298.57;573.33;;;-1.00;99.90;;;;;;4146233;28;20168;-74
2021/01/01 00:20:08;;;;;;;1376.63;587.53;;;-1.00;99.90;;;;;;4164049;28;20026;-72
2021/01/01 00:22:11;;;;;;;1307.45;580.55;;;-1.00;99.90;;;;;;4163899;28;20134;-74
2021/01/01 00:24:11;;;;;;;1589.10;590.37;;;-1.20;99.90;;;;;;4164001;28;20112;-72
2021/01/01 00:26:13;;;;;;;1324.90;558.40;;;-1.30;99.90;;;;;;4163853;28;20025;-72
2021/01/01 00:28:14;;;;;;;1399.03;598.75;;;-1.30;99.90;;;;;;4146311;28;20032;-73
2021/01/01 00:30:14;;;;;;;1523.25;622.83;;;-1.40;99.90;;;;;;4163551;28;20493;-72
2021/01/01 00:32:15;;;;;;;1546.30;630.40;;;-1.30;99.90;;;;;;4163522;28;20057;-74
2021/01/01 00:34:16;;;;;;;1366.60;602.00;;;-1.30;99.90;;;;;;4163483;28;20041;-73
2021/01/01 00:36:17;;;;;;;1486.32;624.35;;;-1.30;99.90;;;;;;4163678;28;20389;-73
2021/01/01 00:38:18;;;;;;;1440.40;624.25;;;-1.30;99.90;;;;;;4163246;28;20034;-73
2021/01/01 00:40:19;;;;;;;1549.10;634.88;;;-1.30;99.90;;;;;;4162743;28;20503;-72
2021/01/01 00:42:19;;;;;;;1999.90;680.83;;;-1.30;99.90;;;;;;4163288;28;20026;-73
2021/01/01 00:44:21;;;;;;;1856.82;655.80;;;-1.30;99.90;;;;;;4162197;28;20029;-73
2021/01/01 00:46:23;;;;;;;1693.93;643.47;;;-1.30;99.90;;;;;;4163523;28;20492;-73
2021/01/01 00:48:23;;;;;;;1467.47;602.78;;;-1.30;99.90;;;;;;4145811;28;20044;-74
2021/01/01 00:50:24;;;;;;;1549.25;622.45;;;-1.40;99.90;;;;;;4145487;28;20061;-73
2021/01/01 00:52:25;;;;;;;1267.32;569.40;;;-1.30;99.90;;;;;;4163351;28;20045;-73
2021/01/01 00:54:25;;;;;;;1224.68;552.35;;;-1.30;99.90;;;;;;4174991;28;20062;-73
2021/01/01 00:56:27;;;;;;;1352.95;576.08;;;-1.10;99.90;;;;;;4179617;28;20051;-73
2021/01/01 00:58:28;;;;;;;1275.13;540.08;;;-0.90;99.90;;;;;;4179814;28;20656;-73
2021/01/01 01:00:29;;;;;;;1027.20;465.88;;;-0.80;99.90;;;;;;4159476;28;20064;-73
2021/01/01 01:02:29;;;;;;;1005.67;444.90;;;-0.70;99.90;;;;;;4178040;28;20404;-74
2021/01/01 01:04:30;;;;;;;1073.63;453.40;;;-0.50;99.90;;;;;;4162052;28;20040;-73
2021/01/01 01:06:31;;;;;;;1032.13;472.67;;;-0.40;99.90;;;;;;4161912;28;20488;-74
2021/01/01 01:08:31;;;;;;;1114.75;492.55;;;-0.30;99.90;;;;;;4162120;28;20037;-72
2021/01/01 01:10:32;;;;;;;1022.55;447.70;;;-0.30;99.90;;;;;;4179663;28;20028;-74
2021/01/01 01:12:33;;;;;;;876.75;422.67;;;-0.30;99.90;;;;;;4179722;28;20037;-74
2021/01/01 01:14:33;;;;;;;904.22;427.23;;;-0.30;99.90;;;;;;4179582;28;20059;-75
2021/01/01 01:16:34;;;;;;;881.13;415.77;;;-0.30;99.90;;;;;;4179652;28;20031;-72
2021/01/01 01:18:35;;;;;;;724.95;359.95;;;-0.30;99.90;;;;;;4179521;28;20025;-72
2021/01/01 01:20:35;;;;;;;702.10;334.60;;;-0.30;99.90;;;;;;4179449;28;20028;-73
2021/01/01 01:22:36;;;;;;;687.35;318.23;;;-0.20;99.90;;;;;;4161476;28;20389;-74
2021/01/01 01:24:36;;;;;;;770.65;349.33;;;-0.10;99.90;;;;;;4179526;28;20480;-72
2021/01/01 01:26:37;;;;;;;808.15;369.83;;;-0.10;99.90;;;;;;4161356;28;20025;-74
2021/01/01 01:28:38;;;;;;;778.15;365.80;;;-0.10;99.90;;;;;;4161718;28;20727;-74
2021/01/01 01:30:39;;;;;;;784.50;356.73;;;-0.20;99.90;;;;;;4161607;28;20029;-73
2021/01/01 01:32:39;;;;;;;651.22;293.00;;;-0.30;99.90;;;;;;4179501;28;20025;-74
2021/01/01 01:34:40;;;;;;;576.28;269.67;;;-0.30;99.90;;;;;;4179492;28;20116;-73
2021/01/01 01:36:41;;;;;;;594.75;272.45;;;-0.30;99.90;;;;;;4179197;28;20029;-74
2021/01/01 01:38:41;;;;;;;510.67;231.65;;;-0.30;99.90;;;;;;4164055;28;20143;-72
2021/01/01 01:40:42;;;;;;;601.75;238.68;;;-0.30;99.90;;;;;;4179104;28;20033;-74
2021/01/01 01:42:43;;;;;;;521.22;225.52;;;-0.30;99.90;;;;;;4161895;28;20029;-74
2021/01/01 01:44:43;;;;;;;556.03;233.00;;;-0.30;99.90;;;;;;4179317;28;20059;-74
2021/01/01 01:46:45;;;;;;;523.85;230.68;;;-0.40;99.90;;;;;;4178908;28;20025;-74
2021/01/01 01:48:47;;;;;;;513.80;229.88;;;-0.40;99.90;;;;;;4179217;28;20116;-74
2021/01/01 01:50:48;;;;;;;530.95;232.95;;;-0.50;99.90;;;;;;4175563;28;20447;-73
2021/01/01 01:52:49;;;;;;;511.88;227.15;;;-0.50;99.90;;;;;;4174750;28;20059;-73
2021/01/01 01:54:53;;;;;;;562.53;227.57;;;-0.50;99.90;;;;;;4179167;28;20476;-73
2021/01/01 01:56:53;;;;;;;501.55;207.93;;;-0.60;99.90;;;;;;4178810;28;20021;-74
2021/01/01 01:58:54;;;;;;;520.58;213.50;;;-0.70;99.90;;;;;;4166329;28;20063;-74
2021/01/01 02:00:58;;;;;;;534.33;216.65;;;-0.70;99.90;;;;;;4179326;28;20071;-74
2021/01/01 02:02:59;;;;;;;523.30;218.02;;;-0.80;99.90;;;;;;4161646;28;20528;-72
2021/01/01 02:05:00;;;;;;;479.30;203.85;;;-0.90;99.90;;;;;;4179115;28;20124;-72
2021/01/01 02:07:02;;;;;;;501.80;213.40;;;-1.00;99.90;;;;;;4178242;28;20551;-74
2021/01/01 02:09:03;;;;;;;511.13;202.77;;;-1.00;99.90;;;;;;4179386;28;20021;-74
2021/01/01 02:11:06;;;;;;;533.75;214.57;;;-1.10;99.90;;;;;;4179039;28;20122;-73
2021/01/01 02:13:08;;;;;;;592.87;231.47;;;-1.20;99.90;;;;;;4182240;28;20549;-74
2021/01/01 02:15:08;;;;;;;593.33;239.38;;;-1.20;99.90;;;;;;4164257;28;20260;-73
2021/01/01 02:17:09;;;;;;;579.72;248.25;;;-1.30;99.90;;;;;;4181847;28;20082;-74
2021/01/01 02:19:13;;;;;;;586.08;246.35;;;-1.30;99.90;;;;;;4164728;28;20018;-73
2021/01/01 02:21:16;;;;;;;582.80;254.02;;;-1.30;99.90;;;;;;4181868;28;20048;-74
2021/01/01 02:23:16;;;;;;;585.95;250.35;;;-1.30;99.90;;;;;;4182209;28;20453;-73
2021/01/01 02:25:17;;;;;;;619.85;250.50;;;-1.30;99.90;;;;;;4182264;28;20029;-71
2021/01/01 02:27:18;;;;;;;637.10;261.77;;;-1.30;99.90;;;;;;4181940;28;20037;-72
2021/01/01 02:29:19;;;;;;;640.28;258.60;;;-1.30;99.90;;;;;;4182255;28;20116;-73
2021/01/01 02:31:19;;;;;;;601.58;249.30;;;-1.30;99.90;;;;;;4181859;28;20087;-71
2021/01/01 02:33:20;;;;;;;544.50;237.52;;;-1.20;99.90;;;;;;4182323;28;20067;-73
2021/01/01 02:35:20;;;;;;;557.40;236.43;;;-1.10;99.90;;;;;;4182014;28;20037;-73
2021/01/01 02:37:21;;;;;;;492.15;211.43;;;-1.10;99.90;;;;;;4182153;28;20040;-71
2021/01/01 02:39:22;;;;;;;531.22;215.00;;;-1.00;99.90;;;;;;4181968;28;20029;-73
2021/01/01 02:41:22;;;;;;;469.35;186.13;;;-0.90;99.90;;;;;;4157968;28;20401;-72
2021/01/01 02:43:23;;;;;;;533.13;223.57;;;-0.80;99.90;;;;;;4181081;28;20037;-72
2021/01/01 02:45:24;;;;;;;512.65;213.63;;;-0.80;99.90;;;;;;4163849;28;20076;-73
2021/01/01 02:47:25;;;;;;;482.67;214.15;;;-0.80;99.90;;;;;;4164033;28;20033;-73
2021/01/01 02:49:25;;;;;;;510.48;205.93;;;-0.80;99.90;;;;;;4178779;28;20048;-72
2021/01/01 02:51:26;;;;;;;526.22;201.50;;;-0.80;99.90;;;;;;4181557;28;20488;-73
2021/01/01 02:53:28;;;;;;;478.65;192.80;;;-0.70;99.90;;;;;;4181683;28;20060;-73
2021/01/01 02:55:29;;;;;;;472.90;197.07;;;-0.70;99.90;;;;;;4181660;28;20082;-73
2021/01/01 02:57:29;;;;;;;417.75;166.90;;;-0.70;99.90;;;;;;4181891;28;20112;-73
2021/01/01 02:59:30;;;;;;;517.38;199.70;;;-0.60;99.90;;;;;;4181919;28;20017;-73
2021/01/01 03:01:30;;;;;;;332.42;130.45;;;-0.60;99.90;;;;;;4181400;28;20047;-73
2021/01/01 03:03:31;;;;;;;375.35;150.05;;;-0.50;99.90;;;;;;4163726;28;20033;-72
2021/01/01 03:05:32;;;;;;;372.85;145.38;;;-0.50;99.90;;;;;;4181358;28;20029;-73
2021/01/01 03:07:32;;;;;;;368.38;135.25;;;-0.50;99.90;;;;;;4181252;28;20503;-73
2021/01/01 03:09:33;;;;;;;341.98;130.73;;;-0.50;99.90;;;;;;4181583;28;20025;-73
2021/01/01 03:11:33;;;;;;;382.33;135.85;;;-0.50;99.90;;;;;;4181642;28;20483;-73
2021/01/01 03:13:34;;;;;;;354.45;122.72;;;-0.40;99.90;;;;;;4181837;28;20032;-73
2021/01/01 03:15:35;;;;;;;326.75;126.55;;;-0.40;99.90;;;;;;4181453;28;20025;-73
2021/01/01 03:17:35;;;;;;;380.23;128.50;;;-0.30;99.90;;;;;;4173570;28;20496;-74
2021/01/01 03:19:36;;;;;;;308.33;116.57;;;-0.20;99.90;;;;;;4178534;28;20044;-73
2021/01/01 03:21:36;;;;;;;322.10;120.40;;;-0.20;99.90;;;;;;4171825;28;20033;-73
2021/01/01 03:23:37;;;;;;;317.63;122.28;;;-0.10;99.90;;;;;;4161524;28;20109;-73
2021/01/01 03:25:38;;;;;;;352.20;118.05;;;0.00;99.90;;;;;;4179618;28;20472;-74
2021/01/01 03:27:38;;;;;;;311.48;123.75;;;0.00;99.90;;;;;;4179480;28;20052;-73
2021/01/01 03:29:39;;;;;;;336.42;120.90;;;0.10;99.90;;;;;;4161717;28;20425;-73
2021/01/01 03:31:39;;;;;;;316.70;124.18;;;0.20;99.90;;;;;;4161429;28;20119;-74
2021/01/01 03:33:40;;;;;;;339.77;125.35;;;0.20;99.90;;;;;;4161728;28;20029;-73
2021/01/01 03:35:41;;;;;;;321.85;122.30;;;0.10;99.90;;;;;;4162251;28;20037;-73
2021/01/01 03:37:41;;;;;;;308.75;120.18;;;0.40;99.90;;;;;;4180289;28;20033;-73
2021/01/01 03:39:42;;;;;;;372.38;132.00;;;0.40;99.90;;;;;;4181186;28;20112;-72
2021/01/01 03:41:43;;;;;;;351.77;126.38;;;0.40;99.90;;;;;;4158531;28;20128;-72
2021/01/01 03:43:43;;;;;;;384.02;130.00;;;0.40;99.90;;;;;;4163349;28;20056;-72
2021/01/01 03:45:44;;;;;;;361.48;127.43;;;0.40;99.90;;;;;;4180599;28;20108;-73
2021/01/01 03:47:45;;;;;;;315.38;124.38;;;0.30;99.90;;;;;;4162579;28;20503;-73
2021/01/01 03:49:45;;;;;;;327.50;120.45;;;0.30;99.90;;;;;;4180557;28;20464;-73
2021/01/01 03:51:46;;;;;;;318.63;123.68;;;0.40;99.90;;;;;;4181204;28;20025;-73
2021/01/01 03:53:46;;;;;;;320.65;113.43;;;0.50;99.90;;;;;;4180684;28;20495;-72
2021/01/01 03:55:47;;;;;;;298.63;111.10;;;0.50;99.90;;;;;;4180837;28;20507;-73
2021/01/01 03:57:48;;;;;;;370.65;130.65;;;0.40;99.90;;;;;;4180654;28;20112;-73
2021/01/01 03:59:48;;;;;;;311.13;135.18;;;0.50;99.90;;;;;;4180992;28;20029;-73
2021/01/01 04:01:51;;;;;;;324.27;121.22;;;0.50;99.90;;;;;;4180699;28;20483;-73
2021/01/01 04:03:52;;;;;;;355.05;117.85;;;0.50;99.90;;;;;;4180410;28;20550;-73
2021/01/01 04:05:53;;;;;;;324.40;121.80;;;0.50;99.90;;;;;;4180531;28;20033;-72
2021/01/01 04:07:53;;;;;;;320.98;111.25;;;0.50;99.90;;;;;;4180424;28;20036;-73
2021/01/01 04:09:54;;;;;;;288.52;109.97;;;0.40;99.90;;;;;;4162669;28;20420;-74
2021/01/01 04:11:54;;;;;;;272.20;103.93;;;0.40;99.90;;;;;;4180618;28;20025;-74
2021/01/01 04:13:55;;;;;;;268.15;102.05;;;0.50;99.90;;;;;;4180836;28;20029;-74
2021/01/01 04:15:56;;;;;;;259.55;105.22;;;0.50;99.90;;;;;;4180374;28;20021;-74
2021/01/01 04:17:56;;;;;;;252.93;100.43;;;0.50;99.90;;;;;;4180417;28;20475;-74
2021/01/01 04:19:57;;;;;;;273.95;100.20;;;0.50;99.90;;;;;;4180190;28;20033;-74
2021/01/01 04:21:58;;;;;;;238.80;98.45;;;0.50;99.90;;;;;;4174465;28;20384;-74
2021/01/01 04:23:58;;;;;;;245.00;100.22;;;0.50;99.90;;;;;;4162610;28;20049;-72
2021/01/01 04:26:03;;;;;;;230.15;98.40;;;0.50;99.90;;;;;;4179989;28;20473;-74
2021/01/01 04:28:04;;;;;;;207.88;88.35;;;0.50;99.90;;;;;;4180465;28;20056;-74
2021/01/01 04:30:05;;;;;;;227.27;89.65;;;0.50;99.90;;;;;;4180141;28;20028;-74
2021/01/01 04:32:06;;;;;;;205.65;85.40;;;0.50;99.90;;;;;;4162417;28;20456;-74
2021/01/01 04:34:07;;;;;;;220.10;88.25;;;0.50;99.90;;;;;;4161680;28;20030;-75
2021/01/01 04:36:07;;;;;;;201.10;83.43;;;0.50;99.90;;;;;;4180130;28;20112;-74
2021/01/01 04:38:08;;;;;;;195.63;82.18;;;0.60;99.90;;;;;;4162829;28;20029;-74
2021/01/01 04:40:09;;;;;;;177.82;76.70;;;0.60;99.90;;;;;;4179960;28;20021;-75
2021/01/01 04:42:10;;;;;;;204.45;76.55;;;0.70;99.90;;;;;;4179888;28;20116;-75
2021/01/01 04:44:10;;;;;;;203.38;80.47;;;0.70;99.90;;;;;;4180017;28;20057;-74
2021/01/01 04:46:11;;;;;;;183.07;76.72;;;0.70;99.90;;;;;;4180038;28;20025;-74
2021/01/01 04:48:12;;;;;;;187.85;75.35;;;0.60;99.90;;;;;;4179956;28;20025;-74
2021/01/01 04:50:14;;;;;;;199.93;77.57;;;0.60;99.90;;;;;;4162142;28;20131;-74
2021/01/01 04:52:16;;;;;;;187.48;82.20;;;0.50;99.90;;;;;;4179923;28;20075;-74
2021/01/01 04:54:19;;;;;;;200.30;80.25;;;0.50;99.90;;;;;;4179764;28;20079;-72
2021/01/01 04:56:20;;;;;;;192.43;81.28;;;0.50;99.90;;;;;;4180082;28;20040;-72
2021/01/01 04:58:21;;;;;;;207.32;84.47;;;0.40;99.90;;;;;;4179689;28;20045;-72
2021/01/01 05:00:21;;;;;;;204.88;82.38;;;0.40;99.90;;;;;;4179761;28;20490;-73
2021/01/01 05:02:22;;;;;;;222.65;91.28;;;0.40;99.90;;;;;;4159767;28;20112;-73
2021/01/01 05:04:23;;;;;;;216.32;91.15;;;0.50;99.90;;;;;;4179681;28;20490;-73
2021/01/01 05:06:30;;;;;;;214.43;88.97;;;0.50;99.90;;;;;;4162145;28;20029;-73
2021/01/01 05:08:31;;;;;;;220.77;93.60;;;0.50;99.90;;;;;;4175822;28;20045;-74
2021/01/01 05:10:35;;;;;;;234.82;93.82;;;0.50;99.90;;;;;;4161981;28;20057;-73
2021/01/01 05:12:36;;;;;;;240.35;94.82;;;0.50;99.90;;;;;;4179277;28;20444;-73
2021/01/01 05:14:38;;;;;;;235.10;96.00;;;0.50;99.90;;;;;;4179886;28;20032;-73
2021/01/01 05:16:39;;;;;;;225.70;94.60;;;0.60;99.90;;;;;;4161779;28;20366;-73
2021/01/01 05:18:39;;;;;;;226.98;97.72;;;0.60;99.90;;;;;;4179273;28;20223;-73
2021/01/01 05:20:42;;;;;;;239.43;95.35;;;0.60;99.90;;;;;;4179606;28;20017;-73
2021/01/01 05:22:43;;;;;;;232.50;98.65;;;0.60;99.90;;;;;;4179222;28;20021;-73
2021/01/01 05:24:46;;;;;;;262.83;97.93;;;0.50;99.90;;;;;;4161995;28;20029;-73
2021/01/01 05:26:48;;;;;;;238.27;93.78;;;0.60;99.90;;;;;;4179522;28;20051;-73
2021/01/01 05:28:48;;;;;;;236.30;100.50;;;0.60;99.90;;;;;;4179166;28;20094;-73
2021/01/01 05:30:49;;;;;;;241.95;97.70;;;0.70;99.90;;;;;;4161673;28;20465;-73
2021/01/01 05:32:53;;;;;;;259.92;99.80;;;0.70;99.90;;;;;;4179356;28;20472;-74
2021/01/01 05:34:54;;;;;;;243.00;98.10;;;0.70;99.90;;;;;;4161893;28;20025;-74
2021/01/01 05:36:55;;;;;;;232.25;97.60;;;0.70;99.90;;;;;;4179340;28;20029;-74
2021/01/01 05:38:56;;;;;;;242.45;95.25;;;0.70;99.90;;;;;;4169045;28;20037;-74
2021/01/01 05:40:57;;;;;;;231.80;90.72;;;0.80;99.90;;;;;;4179190;28;20392;-72
2021/01/01 05:43:21;;;;;;;249.30;98.75;;;0.80;99.90;;;;;;4179448;28;20112;-73
2021/01/01 05:45:26;;;;;;;235.15;99.80;;;0.80;99.90;;;;;;4161183;28;20025;-73
2021/01/01 05:47:27;;;;;;;254.90;99.85;;;0.80;99.90;;;;;;4179108;28;20045;-73
2021/01/01 05:49:31;;;;;;;261.88;101.85;;;0.80;99.90;;;;;;4179503;28;20426;-73
2021/01/01 05:51:31;;;;;;;262.25;99.35;;;0.80;99.90;;;;;;4161554;28;20542;-73
2021/01/01 05:53:32;;;;;;;246.73;101.22;;;0.80;99.90;;;;;;4161386;28;20037;-73
2021/01/01 05:55:33;;;;;;;225.35;92.10;;;0.80;99.90;;;;;;4161579;28;20040;-74
2021/01/01 05:57:38;;;;;;;229.13;93.20;;;0.80;99.90;;;;;;4161348;28;20057;-72
2021/01/01 05:59:45;;;;;;;229.27;89.30;;;0.80;99.90;;;;;;4179250;28;20025;-73
2021/01/01 06:01:46;;;;;;;226.10;89.38;;;0.80;99.90;;;;;;4161140;28;20029;-73
2021/01/01 06:03:47;;;;;;;213.30;89.88;;;0.90;99.90;;;;;;4178982;28;20365;-74
2021/01/01 06:05:58;;;;;;;222.20;88.10;;;0.90;99.90;;;;;;4179133;28;20106;-73
2021/01/01 06:08:01;;;;;;;223.48;85.65;;;0.90;99.90;;;;;;4161450;28;20025;-73
2021/01/01 06:10:07;;;;;;;206.30;83.25;;;0.90;99.90;;;;;;4161276;28;20383;-73
2021/01/01 06:12:12;;;;;;;207.32;82.93;;;1.00;99.90;;;;;;4178847;28;20033;-74
2021/01/01 06:14:23;;;;;;;198.05;81.35;;;1.00;99.90;;;;;;4169117;28;20722;-74
2021/01/01 06:16:27;;;;;;;195.23;77.53;;;1.00;99.90;;;;;;4178227;28;20057;-73
2021/01/01 06:18:30;;;;;;;195.52;78.50;;;1.00;99.90;;;;;;4174661;28;20472;-73
2021/01/01 06:20:31;;;;;;;193.88;78.65;;;1.00;99.90;;;;;;4161276;28;20083;-73
2021/01/01 06:22:33;;;;;;;182.70;73.18;;;1.00;99.90;;;;;;4179162;28;20040;-73
2021/01/01 06:24:46;;;;;;;159.82;70.78;;;0.90;99.90;;;;;;4170396;28;20129;-73
2021/01/01 06:26:47;;;;;;;174.40;69.90;;;0.90;99.90;;;;;;4178926;28;20052;-73
2021/01/01 06:28:48;;;;;;;161.60;63.63;;;0.90;99.90;;;;;;4160933;28;20026;-74
2021/01/01 06:30:49;;;;;;;158.77;63.35;;;0.90;99.90;;;;;;4178912;28;20055;-74
2021/01/01 06:32:52;;;;;;;140.38;62.78;;;0.90;99.90;;;;;;4179031;28;20021;-74
2021/01/01 06:34:53;;;;;;;137.02;56.13;;;1.00;99.90;;;;;;4179075;28;20024;-74
2021/01/01 06:36:54;;;;;;;143.43;54.78;;;1.00;99.90;;;;;;4178417;28;20029;-74
2021/01/01 06:38:54;;;;;;;130.82;52.72;;;1.00;99.90;;;;;;4157637;28;20037;-73
2021/01/01 06:40:55;;;;;;;124.20;53.47;;;1.00;99.90;;;;;;4178862;28;20029;-74
2021/01/01 06:43:03;;;;;;;128.65;52.88;;;1.00;99.90;;;;;;4178770;28;20079;-74
2021/01/01 06:45:29;;;;;;;138.75;52.08;;;1.10;99.90;;;;;;4174128;28;20037;-74
2021/01/01 06:47:43;;;;;;;126.05;51.22;;;1.10;99.90;;;;;;4153936;28;20029;-73
2021/01/01 06:49:44;;;;;;;;;;;1.00;99.90;;;;;;4179247;28;20025;-73
2021/01/01 06:51:44;;;;;;;117.13;45.45;;;1.00;99.90;;;;;;4178474;28;20312;-73
2021/01/01 06:53:47;;;;;;;125.43;48.08;;;1.10;99.90;;;;;;4161138;28;20080;-73
2021/01/01 06:55:48;;;;;;;121.85;48.42;;;1.10;99.90;;;;;;4178899;28;20379;-73
2021/01/01 06:57:50;;;;;;;128.68;48.63;;;1.10;99.90;;;;;;4179816;28;20043;-74
2021/01/01 06:59:54;;;;;;;123.72;50.50;;;1.10;99.90;;;;;;4181775;28;20075;-74
2021/01/01 07:01:55;;;;;;;116.15;47.28;;;1.00;99.90;;;;;;4181597;28;20021;-72
2021/01/01 07:03:55;;;;;;;112.68;46.20;;;1.00;99.90;;;;;;4163353;28;20485;-74
2021/01/01 07:06:02;;;;;;;122.63;49.47;;;1.00;99.90;;;;;;4164095;28;20507;-75
2021/01/01 07:08:02;;;;;;;117.00;46.63;;;1.00;99.90;;;;;;4181253;28;20029;-75
2021/01/01 07:10:04;;;;;;;112.20;48.58;;;0.90;99.90;;;;;;4181572;28;20068;-74
2021/01/01 07:12:12;;;;;;;112.60;48.40;;;0.90;99.90;;;;;;4181343;28;20033;-70
2021/01/01 07:14:19;;;;;;;115.15;46.45;;;0.90;99.90;;;;;;4181555;28;20032;-72
2021/01/01 07:16:22;;;;;;;111.00;45.17;;;0.90;99.90;;;;;;4181496;28;20037;-72
2021/01/01 07:18:23;;;;;;;102.10;45.28;;;0.90;99.90;;;;;;4154183;28;20044;-73
2021/01/01 07:20:23;;;;;;;112.60;48.53;;;1.00;99.90;;;;;;4160168;28;20501;-73
2021/01/01 07:22:24;;;;;;;118.28;49.67;;;1.00;99.90;;;;;;4171988;28;20044;-73
2021/01/01 07:24:25;;;;;;;121.50;48.40;;;0.90;99.90;;;;;;4179876;28;20025;-74
2021/01/01 07:26:30;;;;;;;123.47;50.85;;;0.90;99.90;;;;;;4162100;28;20052;-73
2021/01/01 07:28:31;;;;;;;126.32;51.38;;;0.90;99.90;;;;;;4179355;28;20098;-74
2021/01/01 07:30:33;;;;;;;127.53;51.97;;;0.90;99.90;;;;;;4161801;28;20455;-74
2021/01/01 07:32:34;;;;;;;131.25;52.80;;;0.90;99.90;;;;;;4179319;28;20029;-73
2021/01/01 07:34:35;;;;;;;129.45;54.95;;;0.90;99.90;;;;;;4179455;28;20033;-73
2021/01/01 07:36:35;;;;;;;130.90;51.30;;;0.90;99.90;;;;;;4178734;28;20512;-73
2021/01/01 07:38:39;;;;;;;127.65;54.10;;;1.00;99.90;;;;;;4179043;28;20365;-73
2021/01/01 07:40:39;;;;;;;139.30;54.20;;;1.00;99.90;;;;;;4180285;28;20071;-73
2021/01/01 07:42:50;;;;;;;121.13;52.65;;;1.00;99.90;;;;;;4181035;28;20087;-74
2021/01/01 07:44:52;;;;;;;126.75;54.13;;;1.10;99.90;;;;;;4181139;28;20025;-73
2021/01/01 07:46:52;;;;;;;126.43;51.38;;;1.10;99.90;;;;;;4181088;28;20028;-72
2021/01/01 07:48:53;;;;;;;134.10;53.35;;;1.10;99.90;;;;;;4174924;28;20171;-73
2021/01/01 07:50:58;;;;;;;118.25;50.30;;;1.10;99.90;;;;;;4143513;28;20085;-73
2021/01/01 07:53:03;;;;;;;133.65;54.60;;;1.20;99.90;;;;;;4153597;28;20105;-73
2021/01/01 07:55:04;;;;;;;125.88;52.70;;;1.20;99.90;;;;;;4167571;28;20522;-73
2021/01/01 07:57:06;;;;;;;116.45;51.63;;;1.30;99.90;;;;;;4164863;28;20034;-73
2021/01/01 07:59:07;;;;;;;136.55;53.90;;;1.30;99.90;;;;;;4150105;28;20030;-74
2021/01/01 08:01:10;;;;;;;121.30;50.22;;;1.30;99.90;;;;;;4159314;28;20104;-74
2021/01/01 08:03:11;;;;;;;139.63;52.90;;;1.40;99.90;;;;;;4171986;28;20120;-74
2021/01/01 08:05:14;;;;;;;127.57;50.80;;;1.40;99.90;;;;;;4168147;28;20035;-74
2021/01/01 08:07:22;;;;;;;120.00;51.03;;;1.50;99.90;;;;;;4168360;28;20060;-74
2021/01/01 08:09:23;;;;;;;119.35;48.35;;;1.60;99.90;;;;;;4166008;28;20508;-74
2021/01/01 08:11:23;;;;;;;116.65;47.65;;;1.60;99.90;;;;;;4169733;28;20025;-73
2021/01/01 08:13:29;;;;;;;114.38;48.17;;;1.60;99.90;;;;;;4166815;28;20103;-74
2021/01/01 08:15:32;;;;;;;115.03;48.13;;;1.70;99.90;;;;;;4149912;28;20037;-73
2021/01/01 08:17:33;;;;;;;;;;;1.70;99.90;;;;;;4151613;28;20038;-74
2021/01/01 08:19:34;;;;;;;118.05;44.17;;;;;;;;;;4170877;28;20352;-74
2021/01/01 08:21:41;;;;;;;107.88;43.30;;;1.70;99.90;;;;;;4147631;28;20030;-74
2021/01/01 08:24:08;;;;;;;104.68;43.70;;;1.80;99.90;;;;;;4167851;28;20453;-73
2021/01/01 08:26:09;;;;;;;100.82;41.25;;;1.80;99.90;;;;;;4166546;28;20112;-73
2021/01/01 08:28:11;;;;;;;93.75;41.22;;;1.90;99.90;;;;;;4166373;28;20384;-72
2021/01/01 08:30:13;;;;;;;98.50;43.67;;;1.90;99.90;;;;;;4170560;28;20021;-73
2021/01/01 08:32:14;;;;;;;101.95;41.35;;;1.90;99.90;;;;;;4162560;28;20034;-72
2021/01/01 08:34:15;;;;;;;94.82;40.03;;;1.90;99.90;;;;;;4157891;28;20034;-73
2021/01/01 08:36:16;;;;;;;93.78;39.38;;;2.00;99.90;;;;;;4148997;28;20037;-73
2021/01/01 08:38:20;;;;;;;85.95;37.60;;;2.00;99.90;;;;;;4163952;28;20026;-72
2021/01/01 08:40:22;;;;;;;92.60;41.05;;;2.10;99.90;;;;;;4151450;28;20584;-73
2021/01/01 08:42:24;;;;;;;92.72;39.85;;;2.20;99.90;;;;;;4155178;28;20022;-72
2021/01/01 08:44:25;;;;;;;94.97;39.60;;;2.20;99.90;;;;;;4152670;28;20048;-72
2021/01/01 08:46:27;;;;;;;95.40;38.63;;;2.20;99.90;;;;;;4179908;28;20025;-73
2021/01/01 08:48:29;;;;;;;78.32;36.28;;;2.30;99.90;;;;;;4162015;28;20484;-73
2021/01/01 08:50:29;;;;;;;91.20;37.75;;;2.30;99.90;;;;;;4172056;28;20491;-72
2021/01/01 08:52:32;;;;;;;84.90;37.92;;;2.30;99.90;;;;;;4174387;28;20159;-74
2021/01/01 08:54:32;;;;;;;103.30;36.97;;;2.40;99.90;;;;;;4166743;28;20099;-73
2021/01/01 08:56:33;;;;;;;87.00;34.90;;;2.40;99.90;;;;;;4155631;28;20477;-72
2021/01/01 08:58:34;;;;;;;94.68;36.63;;;2.50;99.90;;;;;;4167036;28;20041;-73
2021/01/01 09:00:36;;;;;;;85.20;34.25;;;2.50;99.90;;;;;;4164263;28;20386;-73
2021/01/01 09:02:37;;;;;;;75.93;32.22;;;2.50;99.90;;;;;;4169145;28;20707;-72
2021/01/01 09:04:40;;;;;;;84.03;35.60;;;2.50;99.90;;;;;;4147108;28;20164;-73
2021/01/01 09:06:53;;;;;;;85.95;34.58;;;2.50;99.90;;;;;;4147471;28;20033;-74
2021/01/01 09:09:04;;;;;;;91.32;34.17;;;2.50;99.90;;;;;;4167374;28;20392;-74
2021/01/01 09:11:20;;;;;;;80.95;31.65;;;2.50;99.90;;;;;;4165035;28;20032;-74
2021/01/01 09:13:30;;;;;;;77.03;34.15;;;2.50;99.90;;;;;;4148526;28;20037;-74
2021/01/01 09:15:31;;;;;;;69.47;30.85;;;2.60;99.90;;;;;;4165157;28;20405;-74
2021/01/01 09:17:31;;;;;;;84.00;32.53;;;2.60;99.90;;;;;;4166381;28;20035;-74
2021/01/01 09:19:32;;;;;;;73.22;30.17;;;2.70;99.90;;;;;;4169038;28;20032;-74
2021/01/01 09:21:33;;;;;;;68.93;29.58;;;2.70;99.90;;;;;;4154669;28;20480;-74
2021/01/01 09:23:33;;;;;;;76.22;30.25;;;2.80;99.90;;;;;;4147685;28;20117;-74
2021/01/01 09:25:35;;;;;;;75.97;33.20;;;2.80;99.90;;;;;;4168221;28;20071;-74
2021/01/01 09:27:37;;;;;;;72.03;29.90;;;2.80;99.90;;;;;;4152939;28;20029;-74
2021/01/01 09:29:38;;;;;;;75.57;31.13;;;2.90;99.90;;;;;;4163963;28;20029;-74
2021/01/01 09:31:44;;;;;;;76.53;31.10;;;2.90;99.90;;;;;;4164624;28;20029;-74
2021/01/01 09:34:02;;;;;;;72.80;29.45;;;2.90;99.90;;;;;;4163444;28;20182;-74
2021/01/01 09:36:03;;;;;;;63.20;27.73;;;3.00;99.90;;;;;;4164962;28;20033;-74
2021/01/01 09:38:04;;;;;;;72.85;29.55;;;3.00;99.90;;;;;;4170124;28;20482;-74
2021/01/01 09:40:06;;;;;;;60.67;29.48;;;3.00;99.90;;;;;;4168164;28;20056;-74
2021/01/01 09:42:07;;;;;;;75.28;31.08;;;3.00;99.90;;;;;;4148578;28;20133;-74
2021/01/01 09:44:08;;;;;;;68.88;30.40;;;3.00;99.90;;;;;;4167616;28;20072;-73
2021/01/01 09:46:08;;;;;;;70.82;32.35;;;3.10;99.90;;;;;;4163420;28;20022;-73
2021/01/01 09:48:09;;;;;;;77.88;31.83;;;3.10;99.90;;;;;;4167922;28;20362;-74
2021/01/01 09:50:11;;;;;;;74.55;32.92;;;3.10;99.90;;;;;;4162473;28;20041;-73
2021/01/01 09:52:12;;;;;;;76.35;33.58;;;3.10;99.90;;;;;;4148150;28;20120;-73
2021/01/01 09:54:13;;;;;;;75.75;33.90;;;3.20;99.90;;;;;;4164708;28;20389;-74
2021/01/01 09:56:13;;;;;;;68.15;31.25;;;3.20;99.90;;;;;;4164196;28;20056;-73
2021/01/01 09:58:14;;;;;;;75.15;30.73;;;3.20;99.90;;;;;;4146797;28;20056;-74
2021/01/01 10:00:17;;;;;;;68.07;31.45;;;3.20;99.90;;;;;;4165098;28;20022;-73
2021/01/01 10:02:17;;;;;;;65.45;30.77;;;3.20;99.90;;;;;;4166837;28;20109;-73
2021/01/01 10:04:18;;;;;;;65.78;30.33;;;3.30;99.90;;;;;;4150721;28;20097;-74
2021/01/01 10:06:18;;;;;;;57.38;26.52;;;3.20;99.90;;;;;;4165312;28;20029;-73
2021/01/01 10:08:19;;;;;;;63.47;30.38;;;3.20;99.90;;;;;;4146775;28;20453;-73
2021/01/01 10:10:20;;;;;;;64.57;29.35;;;3.30;99.90;;;;;;4147560;28;20034;-73
2021/01/01 10:12:20;;;;;;;51.97;27.05;;;3.30;99.90;;;;;;4159760;28;20120;-73
2021/01/01 10:14:21;;;;;;;53.00;26.08;;;3.30;99.90;;;;;;4150562;28;20064;-73